sensor_id;sensor_type;location;lat;lon;timestamp;P1;durP1;ratioP1;P2;durP2;ratioP2
75274;SDS011;63871;47.216;39.684;2023-03-13T00:01:00;3.58;;;1.25;;
75274;SDS011;63871;47.216;39.684;2023-03-13T00:03:26;2.33;;;0.82;;
75274;SDS011;63871;47.216;39.684;2023-03-13T00:05:56;2.10;;;1.00;;
75274;SDS011;63871;47.216;39.684;2023-03-13T00:08:21;3.58;;;1.70;;
75274;SDS011;63871;47.216;39.684;2023-03-13T00:10:47;2.45;;;0.95;;
75274;SDS011;63871;47.216;39.684;2023-03-13T00:13:12;2.28;;;0.98;;
75274;SDS011;63871;47.216;39.684;2023-03-13T00:15:38;3.05;;;1.30;;
75274;SDS011;63871;47.216;39.684;2023-03-13T00:18:04;2.40;;;1.10;;
75274;SDS011;63871;47.216;39.684;2023-03-13T00:20:29;1.95;;;0.85;;
75274;SDS011;63871;47.216;39.684;2023-03-13T00:22:55;2.00;;;0.70;;
75274;SDS011;63871;47.216;39.684;2023-03-13T00:25:20;2.15;;;0.90;;
75274;SDS011;63871;47.216;39.684;2023-03-13T00:27:46;3.22;;;1.35;;
75274;SDS011;63871;47.216;39.684;2023-03-13T00:30:11;1.33;;;0.60;;
75274;SDS011;63871;47.216;39.684;2023-03-13T00:32:40;2.90;;;0.95;;
75274;SDS011;63871;47.216;39.684;2023-03-13T00:35:06;1.98;;;0.73;;
75274;SDS011;63871;47.216;39.684;2023-03-13T00:37:31;1.77;;;0.90;;
75274;SDS011;63871;47.216;39.684;2023-03-13T00:39:57;1.17;;;0.50;;
75274;SDS011;63871;47.216;39.684;2023-03-13T00:42:22;3.72;;;1.20;;
75274;SDS011;63871;47.216;39.684;2023-03-13T00:44:48;1.83;;;0.82;;
75274;SDS011;63871;47.216;39.684;2023-03-13T00:47:13;1.80;;;0.60;;
75274;SDS011;63871;47.216;39.684;2023-03-13T00:49:41;3.58;;;1.50;;
75274;SDS011;63871;47.216;39.684;2023-03-13T00:52:07;1.42;;;0.68;;
75274;SDS011;63871;47.216;39.684;2023-03-13T00:54:33;2.30;;;1.15;;
75274;SDS011;63871;47.216;39.684;2023-03-13T00:56:58;2.40;;;0.73;;
75274;SDS011;63871;47.216;39.684;2023-03-13T00:59:23;2.42;;;0.95;;
75274;SDS011;63871;47.216;39.684;2023-03-13T01:01:49;3.45;;;1.00;;
75274;SDS011;63871;47.216;39.684;2023-03-13T01:04:14;1.15;;;0.47;;
75274;SDS011;63871;47.216;39.684;2023-03-13T01:06:40;2.00;;;0.52;;
75274;SDS011;63871;47.216;39.684;2023-03-13T01:09:10;1.80;;;0.68;;
75274;SDS011;63871;47.216;39.684;2023-03-13T01:11:37;4.25;;;1.20;;
75274;SDS011;63871;47.216;39.684;2023-03-13T01:14:04;2.58;;;0.80;;
75274;SDS011;63871;47.216;39.684;2023-03-13T01:16:32;1.48;;;0.55;;
75274;SDS011;63871;47.216;39.684;2023-03-13T01:18:59;3.85;;;0.52;;
75274;SDS011;63871;47.216;39.684;2023-03-13T01:21:25;1.13;;;0.50;;
75274;SDS011;63871;47.216;39.684;2023-03-13T01:23:51;1.00;;;0.52;;
75274;SDS011;63871;47.216;39.684;2023-03-13T01:26:16;1.73;;;0.68;;
75274;SDS011;63871;47.216;39.684;2023-03-13T01:28:42;2.00;;;0.60;;
75274;SDS011;63871;47.216;39.684;2023-03-13T01:33:36;2.00;;;0.90;;
75274;SDS011;63871;47.216;39.684;2023-03-13T01:36:02;2.40;;;1.10;;
75274;SDS011;63871;47.216;39.684;2023-03-13T01:38:28;3.20;;;1.25;;
75274;SDS011;63871;47.216;39.684;2023-03-13T01:40:54;1.52;;;0.88;;
75274;SDS011;63871;47.216;39.684;2023-03-13T01:43:24;2.50;;;0.93;;
75274;SDS011;63871;47.216;39.684;2023-03-13T01:45:53;1.70;;;0.70;;
75274;SDS011;63871;47.216;39.684;2023-03-13T01:48:21;3.45;;;1.20;;
75274;SDS011;63871;47.216;39.684;2023-03-13T01:50:48;2.78;;;1.00;;
75274;SDS011;63871;47.216;39.684;2023-03-13T01:53:23;2.70;;;1.02;;
75274;SDS011;63871;47.216;39.684;2023-03-13T01:55:49;3.00;;;0.73;;
75274;SDS011;63871;47.216;39.684;2023-03-13T01:58:17;4.88;;;1.88;;
75274;SDS011;63871;47.216;39.684;2023-03-13T02:00:42;3.38;;;1.23;;
75274;SDS011;63871;47.216;39.684;2023-03-13T02:03:12;3.85;;;0.77;;
75274;SDS011;63871;47.216;39.684;2023-03-13T02:05:39;1.98;;;0.80;;
75274;SDS011;63871;47.216;39.684;2023-03-13T02:08:06;5.38;;;1.02;;
75274;SDS011;63871;47.216;39.684;2023-03-13T02:10:36;1.65;;;0.60;;
75274;SDS011;63871;47.216;39.684;2023-03-13T02:13:03;3.38;;;0.70;;
75274;SDS011;63871;47.216;39.684;2023-03-13T02:15:29;5.20;;;1.25;;
75274;SDS011;63871;47.216;39.684;2023-03-13T02:17:55;2.67;;;0.90;;
75274;SDS011;63871;47.216;39.684;2023-03-13T02:20:22;1.77;;;0.52;;
75274;SDS011;63871;47.216;39.684;2023-03-13T02:22:55;2.40;;;1.23;;
75274;SDS011;63871;47.216;39.684;2023-03-13T02:27:56;1.92;;;0.68;;
75274;SDS011;63871;47.216;39.684;2023-03-13T02:30:22;3.05;;;1.08;;
75274;SDS011;63871;47.216;39.684;2023-03-13T02:32:48;1.45;;;0.55;;
75274;SDS011;63871;47.216;39.684;2023-03-13T02:35:15;1.58;;;0.73;;
75274;SDS011;63871;47.216;39.684;2023-03-13T02:37:41;3.13;;;0.95;;
75274;SDS011;63871;47.216;39.684;2023-03-13T02:40:14;3.22;;;0.77;;
75274;SDS011;63871;47.216;39.684;2023-03-13T02:42:42;2.70;;;0.77;;
75274;SDS011;63871;47.216;39.684;2023-03-13T02:45:09;1.85;;;0.80;;
75274;SDS011;63871;47.216;39.684;2023-03-13T02:47:35;4.18;;;0.98;;
75274;SDS011;63871;47.216;39.684;2023-03-13T02:50:00;8.07;;;1.35;;
75274;SDS011;63871;47.216;39.684;2023-03-13T02:52:30;2.85;;;0.80;;
75274;SDS011;63871;47.216;39.684;2023-03-13T02:54:59;2.30;;;1.05;;
75274;SDS011;63871;47.216;39.684;2023-03-13T02:57:27;4.15;;;1.00;;
75274;SDS011;63871;47.216;39.684;2023-03-13T02:59:53;2.40;;;0.93;;
75274;SDS011;63871;47.216;39.684;2023-03-13T03:02:19;6.97;;;1.30;;
75274;SDS011;63871;47.216;39.684;2023-03-13T03:04:45;1.52;;;0.70;;
75274;SDS011;63871;47.216;39.684;2023-03-13T03:07:10;1.95;;;0.90;;
75274;SDS011;63871;47.216;39.684;2023-03-13T03:09:36;1.70;;;0.77;;
75274;SDS011;63871;47.216;39.684;2023-03-13T03:12:06;1.95;;;0.55;;
75274;SDS011;63871;47.216;39.684;2023-03-13T03:14:32;3.10;;;0.77;;
75274;SDS011;63871;47.216;39.684;2023-03-13T03:16:58;1.38;;;0.55;;
75274;SDS011;63871;47.216;39.684;2023-03-13T03:19:25;3.42;;;1.25;;
75274;SDS011;63871;47.216;39.684;2023-03-13T03:21:50;4.22;;;0.77;;
75274;SDS011;63871;47.216;39.684;2023-03-13T03:24:17;1.77;;;0.77;;
75274;SDS011;63871;47.216;39.684;2023-03-13T03:26:43;1.48;;;0.60;;
75274;SDS011;63871;47.216;39.684;2023-03-13T03:29:16;1.95;;;0.80;;
75274;SDS011;63871;47.216;39.684;2023-03-13T03:31:42;3.67;;;1.70;;
75274;SDS011;63871;47.216;39.684;2023-03-13T03:34:08;3.28;;;1.33;;
75274;SDS011;63871;47.216;39.684;2023-03-13T03:36:34;4.68;;;1.77;;
75274;SDS011;63871;47.216;39.684;2023-03-13T03:39:00;5.18;;;2.00;;
75274;SDS011;63871;47.216;39.684;2023-03-13T03:41:26;6.00;;;2.38;;
75274;SDS011;63871;47.216;39.684;2023-03-13T03:43:52;6.30;;;1.95;;
75274;SDS011;63871;47.216;39.684;2023-03-13T03:46:22;11.30;;;3.33;;
75274;SDS011;63871;47.216;39.684;2023-03-13T03:48:49;10.05;;;2.38;;
75274;SDS011;63871;47.216;39.684;2023-03-13T03:51:15;7.30;;;2.90;;
75274;SDS011;63871;47.216;39.684;2023-03-13T03:53:43;14.45;;;3.42;;
75274;SDS011;63871;47.216;39.684;2023-03-13T03:56:08;6.95;;;2.92;;
75274;SDS011;63871;47.216;39.684;2023-03-13T03:58:38;3.90;;;1.35;;
75274;SDS011;63871;47.216;39.684;2023-03-13T04:01:10;6.93;;;1.85;;
75274;SDS011;63871;47.216;39.684;2023-03-13T04:03:36;3.53;;;1.77;;
75274;SDS011;63871;47.216;39.684;2023-03-13T04:06:02;3.72;;;1.52;;
75274;SDS011;63871;47.216;39.684;2023-03-13T04:08:27;6.07;;;1.88;;
75274;SDS011;63871;47.216;39.684;2023-03-13T04:10:53;6.05;;;1.70;;
75274;SDS011;63871;47.216;39.684;2023-03-13T04:13:21;4.35;;;2.05;;
75274;SDS011;63871;47.216;39.684;2023-03-13T04:15:48;2.53;;;1.42;;
75274;SDS011;63871;47.216;39.684;2023-03-13T04:18:14;6.65;;;1.73;;
75274;SDS011;63871;47.216;39.684;2023-03-13T04:20:41;4.75;;;1.55;;
75274;SDS011;63871;47.216;39.684;2023-03-13T04:23:07;4.72;;;2.30;;
75274;SDS011;63871;47.216;39.684;2023-03-13T04:25:32;9.30;;;1.42;;
75274;SDS011;63871;47.216;39.684;2023-03-13T04:27:59;6.45;;;1.48;;
75274;SDS011;63871;47.216;39.684;2023-03-13T04:30:31;1.95;;;0.93;;
75274;SDS011;63871;47.216;39.684;2023-03-13T04:33:32;5.85;;;2.10;;
75274;SDS011;63871;47.216;39.684;2023-03-13T04:36:08;2.13;;;1.25;;
75274;SDS011;63871;47.216;39.684;2023-03-13T04:38:54;6.03;;;2.13;;
75274;SDS011;63871;47.216;39.684;2023-03-13T04:41:48;9.82;;;1.80;;
75274;SDS011;63871;47.216;39.684;2023-03-13T04:44:37;9.57;;;1.80;;
75274;SDS011;63871;47.216;39.684;2023-03-13T04:47:23;2.70;;;1.10;;
75274;SDS011;63871;47.216;39.684;2023-03-13T04:50:05;0.65;;;0.20;;
75274;SDS011;63871;47.216;39.684;2023-03-13T04:52:56;3.28;;;1.52;;
75274;SDS011;63871;47.216;39.684;2023-03-13T04:55:32;5.32;;;2.13;;
75274;SDS011;63871;47.216;39.684;2023-03-13T04:58:20;3.60;;;1.75;;
75274;SDS011;63871;47.216;39.684;2023-03-13T05:01:05;4.72;;;1.85;;
75274;SDS011;63871;47.216;39.684;2023-03-13T05:03:50;10.35;;;2.17;;
75274;SDS011;63871;47.216;39.684;2023-03-13T05:06:31;5.60;;;1.73;;
75274;SDS011;63871;47.216;39.684;2023-03-13T05:09:35;13.45;;;2.30;;
75274;SDS011;63871;47.216;39.684;2023-03-13T05:12:21;8.10;;;1.80;;
75274;SDS011;63871;47.216;39.684;2023-03-13T05:14:58;6.68;;;1.60;;
75274;SDS011;63871;47.216;39.684;2023-03-13T05:17:43;7.40;;;1.95;;
75274;SDS011;63871;47.216;39.684;2023-03-13T05:20:40;6.88;;;1.70;;
75274;SDS011;63871;47.216;39.684;2023-03-13T05:23:29;7.93;;;3.47;;
75274;SDS011;63871;47.216;39.684;2023-03-13T05:26:03;5.68;;;2.55;;
75274;SDS011;63871;47.216;39.684;2023-03-13T05:28:46;5.43;;;1.90;;
75274;SDS011;63871;47.216;39.684;2023-03-13T05:31:30;7.53;;;1.52;;
75274;SDS011;63871;47.216;39.684;2023-03-13T05:34:14;3.03;;;1.35;;
75274;SDS011;63871;47.216;39.684;2023-03-13T05:37:01;5.53;;;2.10;;
75274;SDS011;63871;47.216;39.684;2023-03-13T05:39:49;3.13;;;1.60;;
75274;SDS011;63871;47.216;39.684;2023-03-13T05:42:44;6.35;;;1.60;;
75274;SDS011;63871;47.216;39.684;2023-03-13T05:45:20;8.93;;;2.55;;
75274;SDS011;63871;47.216;39.684;2023-03-13T05:48:05;6.03;;;2.08;;
75274;SDS011;63871;47.216;39.684;2023-03-13T05:50:56;9.57;;;2.05;;
75274;SDS011;63871;47.216;39.684;2023-03-13T05:53:40;7.47;;;1.98;;
75274;SDS011;63871;47.216;39.684;2023-03-13T05:56:17;5.60;;;1.70;;
75274;SDS011;63871;47.216;39.684;2023-03-13T05:59:06;7.72;;;3.10;;
75274;SDS011;63871;47.216;39.684;2023-03-13T06:01:54;25.45;;;9.32;;
75274;SDS011;63871;47.216;39.684;2023-03-13T06:04:27;7.18;;;3.03;;
75274;SDS011;63871;47.216;39.684;2023-03-13T06:06:52;5.65;;;2.78;;
75274;SDS011;63871;47.216;39.684;2023-03-13T06:09:18;12.88;;;5.18;;
75274;SDS011;63871;47.216;39.684;2023-03-13T06:11:44;9.30;;;4.13;;
75274;SDS011;63871;47.216;39.684;2023-03-13T06:14:09;11.50;;;2.78;;
75274;SDS011;63871;47.216;39.684;2023-03-13T06:16:46;8.48;;;2.95;;
75274;SDS011;63871;47.216;39.684;2023-03-13T06:19:16;14.13;;;3.35;;
75274;SDS011;63871;47.216;39.684;2023-03-13T06:21:42;3.60;;;1.90;;
75274;SDS011;63871;47.216;39.684;2023-03-13T06:24:07;6.85;;;2.20;;
75274;SDS011;63871;47.216;39.684;2023-03-13T06:26:33;9.35;;;4.00;;
75274;SDS011;63871;47.216;39.684;2023-03-13T06:28:58;4.50;;;1.90;;
75274;SDS011;63871;47.216;39.684;2023-03-13T06:31:23;9.35;;;2.70;;
75274;SDS011;63871;47.216;39.684;2023-03-13T06:33:55;3.90;;;1.77;;
75274;SDS011;63871;47.216;39.684;2023-03-13T06:36:21;6.47;;;2.30;;
75274;SDS011;63871;47.216;39.684;2023-03-13T06:38:47;4.53;;;1.98;;
75274;SDS011;63871;47.216;39.684;2023-03-13T06:41:13;3.30;;;1.40;;
75274;SDS011;63871;47.216;39.684;2023-03-13T06:43:38;7.22;;;2.28;;
75274;SDS011;63871;47.216;39.684;2023-03-13T06:46:05;5.13;;;2.00;;
75274;SDS011;63871;47.216;39.684;2023-03-13T06:48:30;6.60;;;3.20;;
75274;SDS011;63871;47.216;39.684;2023-03-13T06:50:56;7.97;;;3.00;;
75274;SDS011;63871;47.216;39.684;2023-03-13T06:53:21;5.40;;;2.30;;
75274;SDS011;63871;47.216;39.684;2023-03-13T06:55:47;4.55;;;2.05;;
75274;SDS011;63871;47.216;39.684;2023-03-13T06:58:13;7.90;;;2.20;;
75274;SDS011;63871;47.216;39.684;2023-03-13T07:00:38;8.50;;;3.03;;
75274;SDS011;63871;47.216;39.684;2023-03-13T07:03:05;7.20;;;2.10;;
75274;SDS011;63871;47.216;39.684;2023-03-13T07:05:30;6.88;;;3.95;;
75274;SDS011;63871;47.216;39.684;2023-03-13T07:07:56;11.38;;;5.15;;
75274;SDS011;63871;47.216;39.684;2023-03-13T07:10:22;7.13;;;2.92;;
75274;SDS011;63871;47.216;39.684;2023-03-13T07:12:47;5.38;;;2.25;;
75274;SDS011;63871;47.216;39.684;2023-03-13T07:15:13;11.25;;;3.58;;
75274;SDS011;63871;47.216;39.684;2023-03-13T07:17:39;6.05;;;1.55;;
75274;SDS011;63871;47.216;39.684;2023-03-13T07:20:05;4.28;;;1.42;;
75274;SDS011;63871;47.216;39.684;2023-03-13T07:22:33;5.20;;;1.80;;
75274;SDS011;63871;47.216;39.684;2023-03-13T07:24:59;5.40;;;2.45;;
75274;SDS011;63871;47.216;39.684;2023-03-13T07:27:24;8.40;;;3.45;;
75274;SDS011;63871;47.216;39.684;2023-03-13T07:29:50;5.63;;;2.25;;
75274;SDS011;63871;47.216;39.684;2023-03-13T07:32:15;7.32;;;2.45;;
75274;SDS011;63871;47.216;39.684;2023-03-13T07:34:41;7.22;;;3.10;;
75274;SDS011;63871;47.216;39.684;2023-03-13T07:37:10;5.50;;;2.10;;
75274;SDS011;63871;47.216;39.684;2023-03-13T07:39:35;6.07;;;2.50;;
75274;SDS011;63871;47.216;39.684;2023-03-13T07:42:01;5.75;;;2.72;;
75274;SDS011;63871;47.216;39.684;2023-03-13T07:44:26;5.88;;;1.83;;
75274;SDS011;63871;47.216;39.684;2023-03-13T07:46:51;6.50;;;2.67;;
75274;SDS011;63871;47.216;39.684;2023-03-13T07:49:17;4.60;;;2.10;;
75274;SDS011;63871;47.216;39.684;2023-03-13T07:51:43;3.20;;;1.50;;
75274;SDS011;63871;47.216;39.684;2023-03-13T07:54:12;4.25;;;1.90;;
75274;SDS011;63871;47.216;39.684;2023-03-13T07:56:37;7.05;;;1.92;;
75274;SDS011;63871;47.216;39.684;2023-03-13T07:59:03;4.15;;;1.98;;
75274;SDS011;63871;47.216;39.684;2023-03-13T08:01:28;5.40;;;2.22;;
75274;SDS011;63871;47.216;39.684;2023-03-13T08:03:54;3.38;;;1.33;;
75274;SDS011;63871;47.216;39.684;2023-03-13T08:06:21;5.55;;;1.70;;
75274;SDS011;63871;47.216;39.684;2023-03-13T08:08:47;5.18;;;1.40;;
75274;SDS011;63871;47.216;39.684;2023-03-13T08:11:22;6.85;;;1.88;;
75274;SDS011;63871;47.216;39.684;2023-03-13T08:13:51;8.88;;;1.90;;
75274;SDS011;63871;47.216;39.684;2023-03-13T08:16:18;8.20;;;2.22;;
75274;SDS011;63871;47.216;39.684;2023-03-13T08:18:45;5.25;;;1.58;;
75274;SDS011;63871;47.216;39.684;2023-03-13T08:23:39;8.27;;;1.92;;
75274;SDS011;63871;47.216;39.684;2023-03-13T08:28:33;6.45;;;2.83;;
75274;SDS011;63871;47.216;39.684;2023-03-13T08:31:05;5.40;;;2.42;;
75274;SDS011;63871;47.216;39.684;2023-03-13T08:33:30;7.63;;;3.08;;
75274;SDS011;63871;47.216;39.684;2023-03-13T08:35:56;9.73;;;2.70;;
75274;SDS011;63871;47.216;39.684;2023-03-13T08:38:21;8.70;;;2.45;;
75274;SDS011;63871;47.216;39.684;2023-03-13T08:40:46;5.60;;;2.25;;
75274;SDS011;63871;47.216;39.684;2023-03-13T08:43:12;144.45;;;104.55;;
75274;SDS011;63871;47.216;39.684;2023-03-13T08:45:37;117.90;;;90.68;;
75274;SDS011;63871;47.216;39.684;2023-03-13T08:48:03;66.68;;;55.60;;
75274;SDS011;63871;47.216;39.684;2023-03-13T08:50:28;7.35;;;2.80;;
75274;SDS011;63871;47.216;39.684;2023-03-13T08:52:54;39.28;;;35.22;;
75274;SDS011;63871;47.216;39.684;2023-03-13T08:55:19;23.35;;;9.23;;
75274;SDS011;63871;47.216;39.684;2023-03-13T08:57:45;9.27;;;3.92;;
75274;SDS011;63871;47.216;39.684;2023-03-13T09:00:10;9.93;;;3.97;;
75274;SDS011;63871;47.216;39.684;2023-03-13T09:02:37;10.90;;;3.22;;
75274;SDS011;63871;47.216;39.684;2023-03-13T09:05:03;9.27;;;3.70;;
75274;SDS011;63871;47.216;39.684;2023-03-13T09:07:28;24.52;;;12.38;;
75274;SDS011;63871;47.216;39.684;2023-03-13T09:09:54;8.43;;;4.00;;
75274;SDS011;63871;47.216;39.684;2023-03-13T09:12:19;22.38;;;11.65;;
75274;SDS011;63871;47.216;39.684;2023-03-13T09:14:46;7.53;;;2.78;;
75274;SDS011;63871;47.216;39.684;2023-03-13T09:17:12;13.95;;;6.57;;
75274;SDS011;63871;47.216;39.684;2023-03-13T09:19:37;19.05;;;6.63;;
75274;SDS011;63871;47.216;39.684;2023-03-13T09:22:03;31.65;;;16.02;;
75274;SDS011;63871;47.216;39.684;2023-03-13T09:24:28;13.32;;;4.88;;
75274;SDS011;63871;47.216;39.684;2023-03-13T09:26:54;37.78;;;19.88;;
75274;SDS011;63871;47.216;39.684;2023-03-13T09:29:19;6.63;;;3.40;;
75274;SDS011;63871;47.216;39.684;2023-03-13T09:31:45;21.52;;;8.15;;
75274;SDS011;63871;47.216;39.684;2023-03-13T09:34:10;12.88;;;5.35;;
75274;SDS011;63871;47.216;39.684;2023-03-13T09:36:36;8.40;;;3.13;;
75274;SDS011;63871;47.216;39.684;2023-03-13T09:39:01;19.02;;;9.43;;
75274;SDS011;63871;47.216;39.684;2023-03-13T09:41:35;7.38;;;3.15;;
75274;SDS011;63871;47.216;39.684;2023-03-13T09:46:43;6.10;;;1.80;;
75274;SDS011;63871;47.216;39.684;2023-03-13T09:49:29;15.63;;;2.65;;
75274;SDS011;63871;47.216;39.684;2023-03-13T09:54:47;18.95;;;9.30;;
75274;SDS011;63871;47.216;39.684;2023-03-13T09:59:55;10.77;;;5.07;;
75274;SDS011;63871;47.216;39.684;2023-03-13T10:02:30;17.20;;;7.80;;
75274;SDS011;63871;47.216;39.684;2023-03-13T10:05:01;4.07;;;1.92;;
75274;SDS011;63871;47.216;39.684;2023-03-13T10:07:28;6.45;;;2.72;;
75274;SDS011;63871;47.216;39.684;2023-03-13T10:09:53;7.07;;;2.45;;
75274;SDS011;63871;47.216;39.684;2023-03-13T10:12:23;7.13;;;2.65;;
75274;SDS011;63871;47.216;39.684;2023-03-13T10:14:58;4.13;;;1.70;;
75274;SDS011;63871;47.216;39.684;2023-03-13T10:17:35;7.38;;;3.13;;
75274;SDS011;63871;47.216;39.684;2023-03-13T10:22:32;5.97;;;2.75;;
75274;SDS011;63871;47.216;39.684;2023-03-13T10:24:59;53.38;;;24.48;;
75274;SDS011;63871;47.216;39.684;2023-03-13T10:27:27;52.63;;;28.60;;
75274;SDS011;63871;47.216;39.684;2023-03-13T10:29:52;5.05;;;1.65;;
75274;SDS011;63871;47.216;39.684;2023-03-13T10:32:18;20.08;;;10.07;;
75274;SDS011;63871;47.216;39.684;2023-03-13T10:37:20;4.13;;;1.90;;
75274;SDS011;63871;47.216;39.684;2023-03-13T10:39:46;6.43;;;1.98;;
75274;SDS011;63871;47.216;39.684;2023-03-13T10:42:25;4.25;;;2.10;;
75274;SDS011;63871;47.216;39.684;2023-03-13T10:44:58;8.77;;;2.88;;
75274;SDS011;63871;47.216;39.684;2023-03-13T10:47:24;4.68;;;1.60;;
75274;SDS011;63871;47.216;39.684;2023-03-13T10:49:59;3.30;;;1.55;;
75274;SDS011;63871;47.216;39.684;2023-03-13T10:52:30;6.47;;;2.38;;
75274;SDS011;63871;47.216;39.684;2023-03-13T10:55:00;7.00;;;2.53;;
75274;SDS011;63871;47.216;39.684;2023-03-13T10:57:33;4.70;;;1.90;;
75274;SDS011;63871;47.216;39.684;2023-03-13T11:00:27;7.72;;;1.85;;
75274;SDS011;63871;47.216;39.684;2023-03-13T11:02:45;4.55;;;1.42;;
75274;SDS011;63871;47.216;39.684;2023-03-13T11:07:52;4.97;;;2.10;;
75274;SDS011;63871;47.216;39.684;2023-03-13T11:10:19;5.30;;;2.20;;
75274;SDS011;63871;47.216;39.684;2023-03-13T11:12:45;7.07;;;2.20;;
75274;SDS011;63871;47.216;39.684;2023-03-13T11:15:12;4.30;;;1.70;;
75274;SDS011;63871;47.216;39.684;2023-03-13T11:17:39;5.28;;;2.00;;
75274;SDS011;63871;47.216;39.684;2023-03-13T11:20:07;3.50;;;1.75;;
75274;SDS011;63871;47.216;39.684;2023-03-13T11:25:02;3.93;;;2.03;;
75274;SDS011;63871;47.216;39.684;2023-03-13T11:27:35;5.30;;;1.95;;
75274;SDS011;63871;47.216;39.684;2023-03-13T11:32:54;3.70;;;1.92;;
75274;SDS011;63871;47.216;39.684;2023-03-13T11:37:45;4.05;;;1.80;;
75274;SDS011;63871;47.216;39.684;2023-03-13T11:40:20;3.72;;;1.80;;
75274;SDS011;63871;47.216;39.684;2023-03-13T12:03:19;2.95;;;1.00;;
75274;SDS011;63871;47.216;39.684;2023-03-13T12:08:16;3.00;;;1.20;;
75274;SDS011;63871;47.216;39.684;2023-03-13T12:10:45;2.78;;;1.15;;
75274;SDS011;63871;47.216;39.684;2023-03-13T12:15:42;2.70;;;0.80;;
75274;SDS011;63871;47.216;39.684;2023-03-13T12:18:19;3.45;;;1.48;;
75274;SDS011;63871;47.216;39.684;2023-03-13T12:20:57;2.85;;;0.98;;
75274;SDS011;63871;47.216;39.684;2023-03-13T12:28:44;5.65;;;1.20;;
75274;SDS011;63871;47.216;39.684;2023-03-13T12:31:25;3.35;;;1.40;;
75274;SDS011;63871;47.216;39.684;2023-03-13T12:36:32;2.83;;;0.90;;
75274;SDS011;63871;47.216;39.684;2023-03-13T12:41:43;3.05;;;1.13;;
75274;SDS011;63871;47.216;39.684;2023-03-13T12:44:13;3.30;;;1.52;;
75274;SDS011;63871;47.216;39.684;2023-03-13T12:46:43;4.65;;;1.63;;
75274;SDS011;63871;47.216;39.684;2023-03-13T12:59:40;4.63;;;1.58;;
75274;SDS011;63871;47.216;39.684;2023-03-13T13:02:27;4.50;;;1.50;;
75274;SDS011;63871;47.216;39.684;2023-03-13T13:04:52;4.50;;;1.60;;
75274;SDS011;63871;47.216;39.684;2023-03-13T13:07:26;4.45;;;1.40;;
75274;SDS011;63871;47.216;39.684;2023-03-13T13:10:34;2.40;;;1.13;;
75274;SDS011;63871;47.216;39.684;2023-03-13T13:12:41;3.45;;;1.60;;
75274;SDS011;63871;47.216;39.684;2023-03-13T13:15:26;5.70;;;1.45;;
75274;SDS011;63871;47.216;39.684;2023-03-13T13:17:58;7.32;;;2.60;;
75274;SDS011;63871;47.216;39.684;2023-03-13T13:22:55;5.85;;;1.63;;
75274;SDS011;63871;47.216;39.684;2023-03-13T13:25:28;3.50;;;1.42;;
75274;SDS011;63871;47.216;39.684;2023-03-13T13:27:54;3.80;;;1.10;;
75274;SDS011;63871;47.216;39.684;2023-03-13T13:32:46;5.53;;;1.45;;
75274;SDS011;63871;47.216;39.684;2023-03-13T13:37:37;3.63;;;1.38;;
75274;SDS011;63871;47.216;39.684;2023-03-13T13:42:54;1.50;;;0.50;;
75274;SDS011;63871;47.216;39.684;2023-03-13T13:45:22;4.55;;;1.65;;
75274;SDS011;63871;47.216;39.684;2023-03-13T13:47:50;1.75;;;0.68;;
75274;SDS011;63871;47.216;39.684;2023-03-13T13:50:17;5.07;;;1.15;;
75274;SDS011;63871;47.216;39.684;2023-03-13T13:52:43;4.32;;;1.30;;
75274;SDS011;63871;47.216;39.684;2023-03-13T13:58:01;4.55;;;1.63;;
75274;SDS011;63871;47.216;39.684;2023-03-13T14:00:33;4.25;;;0.98;;
75274;SDS011;63871;47.216;39.684;2023-03-13T14:03:00;3.53;;;1.40;;
75274;SDS011;63871;47.216;39.684;2023-03-13T14:05:27;3.28;;;1.20;;
75274;SDS011;63871;47.216;39.684;2023-03-13T14:12:51;6.07;;;1.60;;
75274;SDS011;63871;47.216;39.684;2023-03-13T14:15:19;6.03;;;1.75;;
75274;SDS011;63871;47.216;39.684;2023-03-13T14:17:52;8.15;;;3.10;;
75274;SDS011;63871;47.216;39.684;2023-03-13T14:22:51;3.35;;;0.88;;
75274;SDS011;63871;47.216;39.684;2023-03-13T14:25:18;4.47;;;1.40;;
75274;SDS011;63871;47.216;39.684;2023-03-13T14:27:44;3.70;;;1.05;;
75274;SDS011;63871;47.216;39.684;2023-03-13T14:30:10;2.65;;;1.20;;
75274;SDS011;63871;47.216;39.684;2023-03-13T14:32:36;7.05;;;2.15;;
75274;SDS011;63871;47.216;39.684;2023-03-13T14:35:03;7.35;;;2.05;;
75274;SDS011;63871;47.216;39.684;2023-03-13T14:37:33;4.57;;;1.27;;
75274;SDS011;63871;47.216;39.684;2023-03-13T14:42:56;5.22;;;0.90;;
75274;SDS011;63871;47.216;39.684;2023-03-13T14:45:27;3.25;;;0.95;;
75274;SDS011;63871;47.216;39.684;2023-03-13T14:47:53;3.85;;;1.38;;
75274;SDS011;63871;47.216;39.684;2023-03-13T14:50:22;4.90;;;0.88;;
75274;SDS011;63871;47.216;39.684;2023-03-13T14:52:53;5.15;;;1.45;;
75274;SDS011;63871;47.216;39.684;2023-03-13T14:58:02;3.17;;;1.23;;
75274;SDS011;63871;47.216;39.684;2023-03-13T15:00:33;4.38;;;1.80;;
75274;SDS011;63871;47.216;39.684;2023-03-13T15:08:18;5.78;;;2.30;;
75274;SDS011;63871;47.216;39.684;2023-03-13T15:10:44;3.42;;;1.42;;
75274;SDS011;63871;47.216;39.684;2023-03-13T15:13:21;3.55;;;1.30;;
75274;SDS011;63871;47.216;39.684;2023-03-13T15:15:48;6.13;;;1.45;;
75274;SDS011;63871;47.216;39.684;2023-03-13T15:18:18;5.35;;;1.33;;
75274;SDS011;63871;47.216;39.684;2023-03-13T15:20:47;6.13;;;1.50;;
75274;SDS011;63871;47.216;39.684;2023-03-13T15:23:13;9.20;;;1.20;;
75274;SDS011;63871;47.216;39.684;2023-03-13T15:25:39;10.48;;;4.72;;
75274;SDS011;63871;47.216;39.684;2023-03-13T15:28:11;5.10;;;2.22;;
75274;SDS011;63871;47.216;39.684;2023-03-13T15:30:38;5.10;;;2.03;;
75274;SDS011;63871;47.216;39.684;2023-03-13T15:33:03;10.10;;;1.90;;
75274;SDS011;63871;47.216;39.684;2023-03-13T15:35:30;4.18;;;1.42;;
75274;SDS011;63871;47.216;39.684;2023-03-13T15:37:56;10.02;;;2.35;;
75274;SDS011;63871;47.216;39.684;2023-03-13T15:40:22;7.50;;;1.77;;
75274;SDS011;63871;47.216;39.684;2023-03-13T15:42:51;12.05;;;2.15;;
75274;SDS011;63871;47.216;39.684;2023-03-13T15:45:17;12.45;;;2.20;;
75274;SDS011;63871;47.216;39.684;2023-03-13T15:47:43;10.38;;;2.58;;
75274;SDS011;63871;47.216;39.684;2023-03-13T15:50:12;6.18;;;2.08;;
75274;SDS011;63871;47.216;39.684;2023-03-13T15:52:38;10.38;;;2.28;;
75274;SDS011;63871;47.216;39.684;2023-03-13T15:55:03;8.88;;;2.53;;
75274;SDS011;63871;47.216;39.684;2023-03-13T15:57:31;5.22;;;1.98;;
75274;SDS011;63871;47.216;39.684;2023-03-13T15:59:57;9.02;;;2.95;;
75274;SDS011;63871;47.216;39.684;2023-03-13T16:02:22;11.40;;;2.70;;
75274;SDS011;63871;47.216;39.684;2023-03-13T16:04:48;13.95;;;4.20;;
75274;SDS011;63871;47.216;39.684;2023-03-13T16:07:18;9.30;;;4.28;;
75274;SDS011;63871;47.216;39.684;2023-03-13T16:09:46;8.85;;;3.45;;
75274;SDS011;63871;47.216;39.684;2023-03-13T16:12:12;13.35;;;3.97;;
75274;SDS011;63871;47.216;39.684;2023-03-13T16:14:38;12.00;;;2.92;;
75274;SDS011;63871;47.216;39.684;2023-03-13T16:17:15;7.22;;;3.22;;
75274;SDS011;63871;47.216;39.684;2023-03-13T16:19:43;8.35;;;3.33;;
75274;SDS011;63871;47.216;39.684;2023-03-13T16:22:09;11.75;;;3.45;;
75274;SDS011;63871;47.216;39.684;2023-03-13T16:24:35;12.00;;;4.25;;
75274;SDS011;63871;47.216;39.684;2023-03-13T16:27:01;14.55;;;4.07;;
75274;SDS011;63871;47.216;39.684;2023-03-13T16:29:26;8.90;;;3.42;;
75274;SDS011;63871;47.216;39.684;2023-03-13T16:31:52;10.00;;;3.10;;
75274;SDS011;63871;47.216;39.684;2023-03-13T16:34:17;9.55;;;2.80;;
75274;SDS011;63871;47.216;39.684;2023-03-13T16:36:43;6.60;;;2.25;;